Time;durP1;ratioP1;P1;durP2;ratioP2;P2;SDS_P1;SDS_P2;PMS_P1;PMS_P2;Temp;Humidity;BMP_temperature;BMP_pressure;BME280_temperature;BME280_humidity;BME280_pressure;Samples;Min_cycle;Max_cycle;Signal;HPM_P1;HPM_P2
2021/09/03 00:01:32;;;;;;;;;;;;;;;12.92;53.72;98753.47;3313740;29;19936;-76
2021/09/03 00:03:13;;;;;;;;;;;;;;;12.89;54.00;98752.09;3313229;29;19936;-76
2021/09/03 00:04:53;;;;;;;;;;;;;;;12.81;54.03;98753.25;3313622;29;19929;-76
2021/09/03 00:06:34;;;;;;;;;;;;;;;12.75;54.01;98753.34;3313425;29;19951;-75
2021/09/03 00:08:14;;;;;;;;;;;;;;;12.70;54.19;98758.56;3313554;29;19985;-77
2021/09/03 00:09:55;;;;;;;;;;;;;;;12.64;54.46;98755.78;3312501;29;19968;-77
2021/09/03 00:11:50;;;;;;;;;;;;;;;12.57;54.67;98757.75;3313547;29;19972;-77
2021/09/03 00:13:31;;;;;;;;;;;;;;;12.51;54.75;98758.66;3313175;29;19936;-77
2021/09/03 00:15:12;;;;;;;;;;;;;;;12.46;54.91;98750.53;3312399;29;19929;-77
2021/09/03 00:16:53;;;;;;;;;;;;;;;12.40;55.04;98746.09;3313352;29;19929;-77
2021/09/03 00:18:33;;;;;;;;;;;;;;;12.33;55.06;98750.72;3313629;29;19929;-76
2021/09/03 00:20:14;;;;;;;;;;;;;;;12.30;55.12;98749.34;3313365;29;19952;-76
2021/09/03 00:21:55;;;;;;;;;;;;;;;12.30;55.25;98746.66;3313208;29;20332;-76
2021/09/03 00:23:35;;;;;;;;;;;;;;;12.23;55.52;98738.72;3311567;29;19929;-76
2021/09/03 00:25:24;;;;;;;;;;;;;;;12.17;55.78;98730.84;3312639;29;19933;-76
2021/09/03 00:27:15;;;;;;;;;;;;;;;12.13;55.65;98735.84;3312382;29;19968;-76
2021/09/03 00:28:56;;;;;;;;;;;;;;;12.13;55.66;98735.84;3312880;29;20397;-76
2021/09/03 00:30:36;;;;;;;;;;;;;;;12.15;55.60;98733.72;3312899;29;20313;-77
2021/09/03 00:32:18;;;;;;;;;;;;;;;12.17;55.46;98736.97;3312848;29;19937;-77
2021/09/03 00:33:59;;;;;;;;;;;;;;;12.19;55.47;98734.91;3324264;29;20086;-77
2021/09/03 00:35:40;;;;;;;;;;;;;;;12.14;55.75;98732.09;3315148;29;19929;-77
2021/09/03 00:37:20;;;;;;;;;;;;;;;12.11;55.93;98726.41;3312788;29;19936;-76
2021/09/03 00:39:01;;;;;;;;;;;;;;;12.09;55.78;98729.31;3312861;29;20429;-77
2021/09/03 00:40:41;;;;;;;;;;;;;;;12.10;55.86;98730.91;3313970;29;20471;-77
2021/09/03 00:42:22;;;;;;;;;;;;;;;12.12;55.65;98720.81;3313562;29;20381;-77
2021/09/03 00:44:02;;;;;;;;;;;;;;;12.16;55.64;98723.88;3312596;29;19933;-76
2021/09/03 00:45:43;;;;;;;;;;;;;;;12.17;55.72;98718.28;3313363;29;19994;-77
2021/09/03 00:47:23;;;;;;;;;;;;;;;12.17;55.71;98718.28;3313313;29;20402;-77
2021/09/03 00:49:04;;;;;;;;;;;;;;;12.16;55.77;98716.66;3313385;29;19929;-76
2021/09/03 00:50:44;;;;;;;;;;;;;;;12.15;55.79;98709.69;3313284;29;19936;-76
2021/09/03 00:52:25;;;;;;;;;;;;;;;12.16;55.87;98707.84;3313574;29;19925;-76
2021/09/03 00:54:06;;;;;;;;;;;;;;;12.13;55.88;98703.78;3311826;29;20037;-76
2021/09/03 00:55:47;;;;;;;;;;;;;;;12.10;55.80;98709.56;3312477;29;19932;-76
2021/09/03 00:57:27;;;;;;;;;;;;;;;12.05;55.95;98701.41;3299152;29;19934;-76
2021/09/03 00:59:08;;;;;;;;;;;;;;;11.99;56.21;98705.00;3319183;29;20442;-77
2021/09/03 01:00:49;;;;;;;;;;;;;;;11.95;56.15;98701.97;3315037;29;20401;-76
2021/09/03 01:02:29;;;;;;;;;;;;;;;11.95;56.19;98701.97;3312768;29;19972;-76
2021/09/03 01:04:10;;;;;;;;;;;;;;;11.89;56.33;98697.53;3310903;29;19979;-77
2021/09/03 01:05:51;;;;;;;;;;;;;;;11.89;56.31;98691.38;3309090;29;19929;-75
2021/09/03 01:07:31;;;;;;;;;;;;;;;11.88;56.48;98701.25;3309047;29;19929;-75
2021/09/03 01:09:12;;;;;;;;;;;;;;;11.87;56.38;98694.28;3312318;29;19961;-76
2021/09/03 01:10:52;;;;;;;;;;;;;;;11.88;56.40;98692.44;3312750;29;19960;-75
2021/09/03 01:12:33;;;;;;;;;;;;;;;11.87;56.42;98694.28;3312685;29;20394;-78
2021/09/03 01:14:13;;;;;;;;;;;;;;;11.88;56.46;98689.78;3312133;29;19929;-77
2021/09/03 01:15:55;;;;;;;;;;;;;;;11.85;56.49;98688.34;3312550;29;19929;-77
2021/09/03 01:17:37;;;;;;;;;;;;;;;11.86;56.30;98686.47;3311783;29;19977;-77
2021/09/03 01:19:17;;;;;;;;;;;;;;;11.86;56.35;98686.47;3311531;29;20370;-77
2021/09/03 01:20:58;;;;;;;;;;;;;;;11.87;56.39;98683.59;3308859;29;19936;-76
2021/09/03 01:22:38;;;;;;;;;;;;;;;11.89;56.40;98688.72;3308659;29;19933;-76
2021/09/03 01:24:19;;;;;;;;;;;;;;;11.88;56.52;98692.44;3249177;29;1881171;-76
2021/09/03 01:26:04;;;;;;;;;;;;;;;11.87;56.48;98688.94;3312262;29;19929;-76
2021/09/03 01:27:46;;;;;;;;;;;;;;;11.87;56.43;98693.47;3312708;29;19933;-77
2021/09/03 01:29:26;;;;;;;;;;;;;;;11.85;56.45;98685.66;3312925;29;20023;-76
2021/09/03 01:31:07;;;;;;;;;;;;;;;11.83;56.53;98686.94;3312719;29;19929;-76
2021/09/03 01:32:48;;;;;;;;;;;;;;;11.81;56.55;98687.16;3312738;29;19936;-76
2021/09/03 01:34:29;;;;;;;;;;;;;;;11.78;56.63;98685.75;3312446;29;20389;-76
2021/09/03 01:36:09;;;;;;;;;;;;;;;11.74;56.75;98679.22;3312541;29;19929;-76
2021/09/03 01:37:50;;;;;;;;;;;;;;;11.66;56.80;98679.56;3312568;29;19936;-77
2021/09/03 01:39:31;;;;;;;;;;;;;;;11.60;57.01;98677.00;3312543;29;19929;-76
2021/09/03 01:41:11;;;;;;;;;;;;;;;11.57;57.12;98679.06;3312542;29;20428;-76
2021/09/03 01:42:52;;;;;;;;;;;;;;;11.56;57.23;98668.59;3312434;29;19959;-75
2021/09/03 01:44:32;;;;;;;;;;;;;;;11.52;57.12;98665.59;3312430;29;19929;-76
2021/09/03 01:46:13;;;;;;;;;;;;;;;11.48;57.29;98666.25;3312564;29;19929;-76
2021/09/03 01:47:53;;;;;;;;;;;;;;;11.46;57.48;98668.31;3312624;29;20459;-76
2021/09/03 01:49:34;;;;;;;;;;;;;;;11.45;57.50;98656.84;3312762;29;19929;-76
2021/09/03 01:51:14;;;;;;;;;;;;;;;11.46;57.47;98658.50;3312511;29;19929;-76
2021/09/03 01:52:55;;;;;;;;;;;;;;;11.46;57.19;98654.97;3312549;29;19933;-76
2021/09/03 01:54:35;;;;;;;;;;;;;;;11.44;57.31;98652.56;3323901;29;19932;-76
2021/09/03 01:56:16;;;;;;;;;;;;;;;11.46;57.36;98650.50;3314694;29;19951;-76
2021/09/03 01:57:58;;;;;;;;;;;;;;;11.48;57.40;98642.25;3312421;29;19968;-76
2021/09/03 01:59:39;;;;;;;;;;;;;;;11.48;57.42;98652.91;3313278;29;19929;-76
2021/09/03 02:01:19;;;;;;;;;;;;;;;11.46;57.57;98644.31;3312548;29;19929;-76
2021/09/03 02:03:00;;;;;;;;;;;;;;;11.46;57.35;98649.66;3312631;29;19929;-76
2021/09/03 02:04:40;;;;;;;;;;;;;;;11.46;57.29;98652.31;3311956;29;19937;-76
2021/09/03 02:06:21;;;;;;;;;;;;;;;11.47;57.46;98668.13;3312711;29;19929;-76
2021/09/03 02:08:02;;;;;;;;;;;;;;;11.46;57.23;98650.50;3312660;29;19921;-76
2021/09/03 02:09:43;;;;;;;;;;;;;;;11.46;57.65;98652.31;3312363;29;19929;-77
2021/09/03 02:11:24;;;;;;;;;;;;;;;11.45;57.31;98642.69;3312641;29;19971;-76
2021/09/03 02:13:04;;;;;;;;;;;;;;;11.46;57.52;98637.16;3312191;29;20424;-77
2021/09/03 02:14:45;;;;;;;;;;;;;;;11.47;57.53;98637.97;3311031;29;19921;-75
2021/09/03 02:16:25;;;;;;;;;;;;;;;11.44;57.62;98635.75;3312182;29;20011;-75
2021/09/03 02:18:06;;;;;;;;;;;;;;;11.39;57.77;98631.06;3312366;29;19925;-74
2021/09/03 02:19:46;;;;;;;;;;;;;;;11.40;57.63;98637.22;3312239;29;19972;-74
2021/09/03 02:21:27;;;;;;;;;;;;;;;11.37;58.09;98635.00;3312746;29;19937;-75
2021/09/03 02:23:07;;;;;;;;;;;;;;;11.32;57.83;98635.69;3312270;29;19936;-76
2021/09/03 02:24:48;;;;;;;;;;;;;;;11.32;57.77;98633.81;3312182;29;19936;-75
2021/09/03 02:26:28;;;;;;;;;;;;;;;11.33;57.58;98640.81;3311853;29;20424;-76
2021/09/03 02:28:09;;;;;;;;;;;;;;;11.31;57.79;98631.41;3312162;29;19933;-75
2021/09/03 02:29:50;;;;;;;;;;;;;;;11.31;57.87;98631.41;3315058;29;20019;-76
2021/09/03 02:31:30;;;;;;;;;;;;;;;11.28;57.81;98622.00;3314647;29;20433;-76
2021/09/03 02:33:11;;;;;;;;;;;;;;;11.28;57.99;98629.16;3314608;29;20023;-76
2021/09/03 02:34:52;;;;;;;;;;;;;;;11.26;58.04;98629.41;3314517;29;19936;-76
2021/09/03 02:36:32;;;;;;;;;;;;;;;11.22;58.23;98630.88;3314825;29;19929;-75
2021/09/03 02:38:13;;;;;;;;;;;;;;;11.21;58.23;98629.25;3314873;29;19929;-75
2021/09/03 02:39:54;;;;;;;;;;;;;;;11.22;57.94;98628.22;3313726;29;19929;-74
2021/09/03 02:41:34;;;;;;;;;;;;;;;11.23;58.09;98624.53;3311147;29;20429;-75
2021/09/03 02:43:14;;;;;;;;;;;;;;;11.22;58.20;98628.22;3313910;29;19932;-75
2021/09/03 02:44:55;;;;;;;;;;;;;;;11.22;58.11;98628.22;3314822;29;19933;-76
2021/09/03 02:46:36;;;;;;;;;;;;;;;11.25;58.28;98627.75;3314895;29;19929;-76
2021/09/03 02:48:16;;;;;;;;;;;;;;;11.27;57.98;98617.69;3314731;29;19921;-76
2021/09/03 02:49:57;;;;;;;;;;;;;;;11.28;58.02;98619.31;3314698;29;19929;-76
2021/09/03 02:51:37;;;;;;;;;;;;;;;11.28;58.17;98616.66;3314865;29;19993;-76
2021/09/03 02:53:18;;;;;;;;;;;;;;;11.26;58.13;98607.25;3314709;29;19933;-76
2021/09/03 02:54:59;;;;;;;;;;;;;;;11.25;58.33;98606.41;3314343;29;19936;-77
2021/09/03 02:56:39;;;;;;;;;;;;;;;11.23;58.20;98607.69;3314380;29;19978;-76
2021/09/03 02:58:20;;;;;;;;;;;;;;;11.23;58.33;98611.19;3314430;29;19929;-76
2021/09/03 03:00:02;;;;;;;;;;;;;;;11.25;58.27;98606.41;3314688;29;19993;-76
2021/09/03 03:01:43;;;;;;;;;;;;;;;11.26;58.24;98605.41;3315052;29;19938;-77
2021/09/03 03:03:24;;;;;;;;;;;;;;;11.27;58.34;98609.69;3314422;29;20417;-75
2021/09/03 03:05:04;;;;;;;;;;;;;;;11.27;58.27;98607.00;3325874;29;19928;-75
2021/09/03 03:06:45;;;;;;;;;;;;;;;11.20;58.44;98590.28;3313714;29;19981;-76
2021/09/03 03:08:25;;;;;;;;;;;;;;;11.27;58.28;98600.88;3314305;29;19922;-77
2021/09/03 03:10:06;;;;;;;;;;;;;;;11.31;58.22;98600.19;3314518;29;20398;-79
2021/09/03 03:11:47;;;;;;;;;;;;;;;11.30;58.34;98593.22;3314382;29;20015;-76
2021/09/03 03:13:29;;;;;;;;;;;;;;;11.28;58.37;98595.31;3325710;29;19937;-77
2021/09/03 03:15:10;;;;;;;;;;;;;;;11.26;58.27;98586.72;3316359;29;19978;-76
2021/09/03 03:16:51;;;;;;;;;;;;;;;11.28;58.38;98583.81;3314401;29;19933;-77
2021/09/03 03:18:31;;;;;;;;;;;;;;;11.28;58.36;98583.81;3313351;29;19949;-76
2021/09/03 03:20:12;;;;;;;;;;;;;;;11.31;58.30;98583.38;3314021;29;19929;-76
2021/09/03 03:21:52;;;;;;;;;;;;;;;11.29;58.16;98578.25;3314340;29;19960;-76
2021/09/03 03:23:33;;;;;;;;;;;;;;;11.30;58.23;98576.41;3313938;29;19935;-76
2021/09/03 03:25:14;;;;;;;;;;;;;;;11.30;58.27;98571.88;3324934;29;19933;-76
2021/09/03 03:26:55;;;;;;;;;;;;;;;11.32;58.21;98571.66;3316448;29;19929;-75
2021/09/03 03:28:36;;;;;;;;;;;;;;;11.37;58.12;98566.47;3325460;29;20039;-77
2021/09/03 03:30:17;;;;;;;;;;;;;;;11.43;57.99;98572.75;3313252;29;20008;-76
2021/09/03 03:31:57;;;;;;;;;;;;;;;11.43;57.96;98570.88;3313677;29;20032;-76
2021/09/03 03:33:38;;;;;;;;;;;;;;;11.46;57.84;98564.28;3313938;29;19929;-76
2021/09/03 03:35:18;;;;;;;;;;;;;;;11.47;57.95;98557.91;3312733;29;19952;-78
2021/09/03 03:36:59;;;;;;;;;;;;;;;11.45;57.97;98557.31;3310770;29;19929;-77
2021/09/03 03:38:40;;;;;;;;;;;;;;;11.45;57.99;98560.78;3313741;29;20039;-76
2021/09/03 03:40:20;;;;;;;;;;;;;;;11.46;58.02;98559.78;3312323;29;20425;-76
2021/09/03 03:42:01;;;;;;;;;;;;;;;11.48;57.92;98554.19;3314476;29;20027;-76
2021/09/03 03:43:41;;;;;;;;;;;;;;;11.51;58.06;98540.38;3313681;29;20012;-77
2021/09/03 03:45:22;;;;;;;;;;;;;;;11.50;57.92;98547.59;3312619;29;19938;-76
2021/09/03 03:47:03;;;;;;;;;;;;;;;11.53;57.97;98543.66;3313821;29;19929;-77
2021/09/03 03:48:44;;;;;;;;;;;;;;;11.54;57.90;98542.63;3313693;29;20290;-77
2021/09/03 03:50:24;;;;;;;;;;;;;;;11.56;57.98;98543.19;3314182;29;19979;-76
2021/09/03 03:52:05;;;;;;;;;;;;;;;11.59;57.79;98537.41;3314936;29;19929;-76
2021/09/03 03:53:45;;;;;;;;;;;;;;;11.60;58.00;98539.03;3313786;29;19941;-77
2021/09/03 03:55:26;;;;;;;;;;;;;;;11.61;57.81;98537.97;3313636;29;19992;-76
2021/09/03 03:57:06;;;;;;;;;;;;;;;11.62;57.69;98547.63;3313783;29;20039;-76
2021/09/03 03:58:47;;;;;;;;;;;;;;;11.66;57.67;98538.09;3313668;29;19929;-76
2021/09/03 04:00:27;;;;;;;;;;;;;;;11.71;57.65;98535.56;3313755;29;19939;-77
2021/09/03 04:02:08;;;;;;;;;;;;;;;11.76;57.53;98535.69;3313640;29;19933;-77
2021/09/03 04:03:48;;;;;;;;;;;;;;;11.82;57.35;98535.78;3313808;29;20397;-77
2021/09/03 04:05:29;;;;;;;;;;;;;;;11.86;57.40;98526.28;3312228;29;20357;-77
2021/09/03 04:07:10;;;;;;;;;;;;;;;11.92;57.21;98525.38;3313434;29;19921;-77
2021/09/03 04:08:50;;;;;;;;;;;;;;;11.96;57.15;98518.53;3312687;29;19929;-78
2021/09/03 04:10:32;;;;;;;;;;;;;;;12.00;57.13;98514.34;3313706;29;19921;-77
2021/09/03 04:12:13;;;;;;;;;;;;;;;12.07;56.83;98511.56;3314320;29;19933;-77
2021/09/03 04:13:53;;;;;;;;;;;;;;;12.08;56.95;98506.00;3315311;29;19929;-77
2021/09/03 04:15:34;;;;;;;;;;;;;;;12.12;56.87;98493.78;3313608;29;20393;-76
2021/09/03 04:17:14;;;;;;;;;;;;;;;12.15;56.98;98496.00;3313718;29;19995;-77
2021/09/03 04:18:55;;;;;;;;;;;;;;;12.20;56.71;98488.09;3313630;29;19921;-77
2021/09/03 04:20:35;;;;;;;;;;;;;;;12.23;56.74;98484.13;3310414;29;20397;-76
2021/09/03 04:22:16;;;;;;;;;;;;;;;12.23;56.73;98490.28;3322108;29;20286;-76
2021/09/03 04:23:56;;;;;;;;;;;;;;;12.21;56.87;98473.72;3312280;29;19935;-75
2021/09/03 04:25:37;;;;;;;;;;;;;;;12.24;56.87;98477.78;3309948;29;19933;-76
2021/09/03 04:27:17;;;;;;;;;;;;;;;12.20;56.97;98464.06;3313286;29;19921;-76
2021/09/03 04:28:58;;;;;;;;;;;;;;;12.16;56.97;98464.78;3313432;29;19936;-76
2021/09/03 04:30:38;;;;;;;;;;;;;;;12.14;57.09;98453.50;3313258;29;20332;-77
2021/09/03 04:32:19;;;;;;;;;;;;;;;12.15;57.05;98460.47;3312268;29;20282;-78
2021/09/03 04:34:00;;;;;;;;;;;;;;;12.16;56.98;98457.56;3308410;29;20487;-76
2021/09/03 04:35:40;;;;;;;;;;;;;;;12.19;56.89;98461.63;3310886;29;19933;-77
2021/09/03 04:37:21;;;;;;;;;;;;;;;12.20;56.92;98469.41;3312244;29;19967;-77
2021/09/03 04:39:01;;;;;;;;;;;;;;;12.20;56.84;98466.72;3313094;29;19933;-77
2021/09/03 04:40:43;;;;;;;;;;;;;;;12.18;56.98;98463.50;3307675;29;19921;-77
2021/09/03 04:42:24;;;;;;;;;;;;;;;12.17;56.93;98464.53;3300761;29;19929;-76
2021/09/03 04:44:05;;;;;;;;;;;;;;;12.13;57.01;98458.06;3311959;29;19929;-75
2021/09/03 04:45:45;;;;;;;;;;;;;;;12.10;57.14;98469.19;3310555;29;20408;-75
2021/09/03 04:47:26;;;;;;;;;;;;;;;12.12;57.06;98461.75;3306000;29;19958;-75
2021/09/03 04:49:06;;;;;;;;;;;;;;;12.17;57.09;98456.50;3301114;29;20004;-75
2021/09/03 04:50:47;;;;;;;;;;;;;;;12.20;56.94;98448.03;3300714;29;20283;-75
2021/09/03 04:52:27;;;;;;;;;;;;;;;12.22;57.11;98451.28;3299788;29;20376;-75
2021/09/03 04:54:08;;;;;;;;;;;;;;;12.22;56.92;98440.59;3311042;29;20386;-75
2021/09/03 04:55:48;;;;;;;;;;;;;;;12.19;57.16;98446.41;3307043;29;19929;-75
2021/09/03 04:57:29;;;;;;;;;;;;;;;12.14;57.18;98440.97;3301425;29;20015;-76
2021/09/03 04:59:09;;;;;;;;;;;;;;;12.15;57.19;98431.91;3301732;29;20467;-76
2021/09/03 05:00:51;;;;;;;;;;;;;;;12.17;57.19;98432.47;3304845;29;20027;-76
2021/09/03 05:02:31;;;;;;;;;;;;;;;12.22;57.21;98434.44;3321289;29;20352;-77
2021/09/03 05:04:12;;;;;;;;;;;;;;;12.29;56.97;98436.97;3327517;29;19929;-78
2021/09/03 05:05:52;;;;;;;;;;;;;;;12.34;57.10;98434.41;3315762;29;19937;-76
2021/09/03 05:07:33;;;;;;;;;;;;;;;12.39;57.13;98429.16;3319210;29;19929;-76
2021/09/03 05:09:14;;;;;;;;;;;;;;;12.44;57.01;98422.06;3325416;29;20377;-76
2021/09/03 05:10:54;;;;;;;;;;;;;;;12.48;56.97;98417.06;3320716;29;20413;-77
2021/09/03 05:12:36;;;;;;;;;;;;;;;12.50;56.96;98417.63;3313015;29;20357;-76
2021/09/03 05:14:18;;;;;;;;;;;;;;;12.53;57.09;98414.47;3313058;29;20363;-77
2021/09/03 05:15:59;;;;;;;;;;;;;;;12.58;57.05;98414.56;3304765;29;20039;-75
2021/09/03 05:17:40;;;;;;;;;;;;;;;12.63;56.99;98414.66;3300087;29;19930;-77
2021/09/03 05:19:20;;;;;;;;;;;;;;;12.66;56.87;98414.19;3306938;29;19939;-76
2021/09/03 05:21:01;;;;;;;;;;;;;;;12.69;56.99;98407.56;3311882;29;20301;-77
2021/09/03 05:22:43;;;;;;;;;;;;;;;12.74;56.82;98409.50;3312727;29;19958;-76
2021/09/03 05:24:24;;;;;;;;;;;;;;;12.78;56.67;98408.78;3312472;29;19936;-75
2021/09/03 05:26:04;;;;;;;;;;;;;;;12.81;56.70;98402.16;3312687;29;20027;-75
2021/09/03 05:27:45;;;;;;;;;;;;;;;12.81;56.62;98394.94;3312434;29;19929;-76
2021/09/03 05:29:26;;;;;;;;;;;;;;;12.84;56.55;98396.31;3310580;29;19936;-77
2021/09/03 05:31:06;;;;;;;;;;;;;;;12.91;56.43;98397.00;3312658;29;20401;-75
2021/09/03 05:32:47;;;;;;;;;;;;;;;13.03;56.20;98388.88;3312340;29;20259;-75
2021/09/03 05:34:27;;;;;;;;;;;;;;;13.11;56.08;98388.47;3312699;29;19961;-76
2021/09/03 05:36:08;;;;;;;;;;;;;;;13.22;55.83;98389.47;3311323;29;20023;-77
2021/09/03 05:37:48;;;;;;;;;;;;;;;13.32;55.73;98384.31;3312448;29;20341;-77
2021/09/03 05:39:29;;;;;;;;;;;;;;;13.40;55.76;98386.56;3312210;29;20361;-77
2021/09/03 05:41:10;;;;;;;;;;;;;;;13.50;55.60;98375.16;3311622;29;20452;-77
2021/09/03 05:42:51;;;;;;;;;;;;;;;13.62;55.56;98375.88;3310182;29;19933;-76
2021/09/03 05:44:32;;;;;;;;;;;;;;;13.75;55.37;98372.84;3308984;29;19964;-76
2021/09/03 05:46:12;;;;;;;;;;;;;;;13.89;55.18;98373.31;3312235;29;19937;-75
2021/09/03 05:47:54;;;;;;;;;;;;;;;14.01;54.93;98361.66;3312088;29;20473;-75
2021/09/03 05:49:35;;;;;;;;;;;;;;;14.12;54.81;98360.72;3311325;29;19929;-76
2021/09/03 05:51:15;;;;;;;;;;;;;;;14.23;54.84;98357.09;3310680;29;20495;-75
2021/09/03 05:52:56;;;;;;;;;;;;;;;14.27;54.48;98358.22;3311239;29;20397;-76
2021/09/03 05:54:37;;;;;;;;;;;;;;;14.31;54.58;98367.38;3311884;29;19936;-77
2021/09/03 05:56:18;;;;;;;;;;;;;;;14.33;54.44;98365.25;3311721;29;20305;-75
2021/09/03 05:58:00;;;;;;;;;;;;;;;14.38;54.41;98365.31;3311695;29;19929;-76
2021/09/03 05:59:41;;;;;;;;;;;;;;;14.44;54.23;98357.31;3311408;29;19932;-73
2021/09/03 06:01:21;;;;;;;;;;;;;;;14.48;54.33;98358.44;3312309;29;20309;-75
2021/09/03 06:03:02;;;;;;;;;;;;;;;14.54;54.09;98352.91;3311361;29;19986;-79
2021/09/03 06:04:42;;;;;;;;;;;;;;;14.59;53.77;98350.28;3315039;29;20400;-74
2021/09/03 06:06:23;;;;;;;;;;;;;;;14.67;53.72;98345.53;3315147;29;20312;-74
2021/09/03 06:08:04;;;;;;;;;;;;;;;14.75;53.55;98347.75;3315013;29;20042;-72
2021/09/03 06:09:46;;;;;;;;;;;;;;;14.81;53.11;98347.50;3314616;29;19936;-75
2021/09/03 06:11:27;;;;;;;;;;;;;;;14.95;53.16;98339.06;3314181;29;19933;-76
2021/09/03 06:13:08;;;;;;;;;;;;;;;15.18;52.79;98336.00;3313976;29;20480;-71
2021/09/03 06:14:48;;;;;;;;;;;;;;;15.50;52.18;98332.44;3314807;29;20071;-73
2021/09/03 06:16:29;;;;;;;;;;;;;;;15.83;51.85;98327.81;3312457;29;19929;-72
2021/09/03 06:18:09;;;;;;;;;;;;;;;16.13;51.44;98327.94;3314180;29;19929;-72
2021/09/03 06:19:50;;;;;;;;;;;;;;;16.38;51.08;98320.97;3315307;29;20021;-72
2021/09/03 06:21:31;;;;;;;;;;;;;;;16.65;50.29;98328.00;3314683;29;20043;-71
2021/09/03 06:23:12;;;;;;;;;;;;;;;16.91;49.81;98324.31;3325447;29;19951;-71
2021/09/03 06:24:53;;;;;;;;;;;;;;;17.12;49.46;98329.69;3316003;29;20023;-72
2021/09/03 06:26:33;;;;;;;;;;;;;;;17.35;49.30;98314.84;3301035;29;19978;-72
2021/09/03 06:28:14;;;;;;;;;;;;;;;17.55;48.53;98316.66;3298358;29;19982;-73
2021/09/03 06:29:54;;;;;;;;;;;;;;;17.73;47.83;98317.94;3311405;29;19936;-73
2021/09/03 06:31:35;;;;;;;;;;;;;;;17.88;48.04;98312.53;3314662;29;19929;-71
2021/09/03 06:33:15;;;;;;;;;;;;;;;18.05;47.62;98304.09;3314325;29;20035;-71
2021/09/03 06:34:57;;;;;;;;;;;;;;;18.29;47.15;98302.34;3314095;29;20011;-72
2021/09/03 06:36:38;;;;;;;;;;;;;;;18.51;46.98;98288.44;3314363;29;19929;-72
2021/09/03 06:38:18;;;;;;;;;;;;;;;18.72;46.23;98293.69;3314656;29;19971;-74
2021/09/03 06:40:00;;;;;;;;;;;;;;;18.87;45.39;98290.06;3314402;29;19933;-70
2021/09/03 06:41:40;;;;;;;;;;;;;;;19.02;45.66;98279.13;3313670;29;19925;-72
2021/09/03 06:43:21;;;;;;;;;;;;;;;19.22;45.14;98278.16;3313173;29;19936;-71
2021/09/03 06:45:01;;;;;;;;;;;;;;;19.47;44.64;98271.66;3312737;29;19983;-72
2021/09/03 06:46:43;;;;;;;;;;;;;;;19.70;45.03;98272.78;3313768;29;20337;-72
2021/09/03 06:48:24;;;;;;;;;;;;;;;19.87;44.37;98257.97;3314307;29;19936;-73
2021/09/03 06:50:05;;;;;;;;;;;;;;;19.96;43.57;98257.03;3314624;29;19929;-73
2021/09/03 06:51:46;;;;;;;;;;;;;;;20.07;43.59;98254.19;3313564;29;20306;-73
2021/09/03 06:53:27;;;;;;;;;;;;;;;20.17;42.48;98259.47;3314113;29;19933;-73
2021/09/03 06:55:07;;;;;;;;;;;;;;;20.21;43.19;98261.28;3314187;29;19936;-72
2021/09/03 06:56:48;;;;;;;;;;;;;;;20.20;42.80;98254.25;3314239;29;19986;-73
2021/09/03 06:58:28;;;;;;;;;;;;;;;20.21;42.97;98257.75;3314181;29;20420;-72
2021/09/03 07:00:09;;;;;;;;;;;;;;;20.25;42.67;98248.78;3314018;29;20393;-73
2021/09/03 07:01:50;;;;;;;;;;;;;;;20.31;43.03;98244.06;3312845;29;20035;-73
2021/09/03 07:03:30;;;;;;;;;;;;;;;20.40;42.34;98244.22;3313678;29;19929;-71
2021/09/03 07:05:12;;;;;;;;;;;;;;;20.45;42.15;98244.16;3314157;29;19973;-73
2021/09/03 07:06:52;;;;;;;;;;;;;;;20.52;42.19;98246.47;3313870;29;19936;-72
2021/09/03 07:08:33;;;;;;;;;;;;;;;20.61;42.30;98236.63;3312346;29;20453;-71
2021/09/03 07:10:14;;;;;;;;;;;;;;;20.71;42.47;98241.88;3313136;29;19929;-73
2021/09/03 07:11:54;;;;;;;;;;;;;;;20.83;41.63;98233.25;3313779;29;19933;-73
2021/09/03 07:13:35;;;;;;;;;;;;;;;20.94;42.02;98228.50;3314370;29;19971;-73
2021/09/03 07:15:15;;;;;;;;;;;;;;;21.00;41.37;98225.38;3312811;29;19971;-71
2021/09/03 07:16:56;;;;;;;;;;;;;;;21.12;41.14;98222.19;3314015;29;19936;-74
2021/09/03 07:18:36;;;;;;;;;;;;;;;21.22;41.39;98213.88;3314087;29;20463;-74
2021/09/03 07:20:17;;;;;;;;;;;;;;;21.37;41.00;98203.81;3313905;29;20310;-74
2021/09/03 07:21:57;;;;;;;;;;;;;;;21.56;40.41;98204.53;3314361;29;19929;-74
2021/09/03 07:23:38;;;;;;;;;;;;;;;21.66;40.01;98201.63;3312974;29;20401;-72
2021/09/03 07:25:19;;;;;;;;;;;;;;;21.61;40.30;98207.16;3313833;29;19929;-73
2021/09/03 07:26:59;;;;;;;;;;;;;;;21.45;40.77;98200.41;3314035;29;19929;-73
2021/09/03 07:28:40;;;;;;;;;;;;;;;21.28;40.30;98196.38;3313784;29;19935;-73
2021/09/03 07:30:20;;;;;;;;;;;;;;;21.16;40.57;98190.66;3313971;29;20001;-72
2021/09/03 07:32:01;;;;;;;;;;;;;;;20.97;41.00;98201.59;3312806;29;20027;-73
2021/09/03 07:33:41;;;;;;;;;;;;;;;20.66;40.50;98185.09;3313532;29;19987;-73
2021/09/03 07:35:22;;;;;;;;;;;;;;;20.34;40.00;98186.69;3312845;29;19956;-73
2021/09/03 07:37:03;;;;;;;;;;;;;;;20.05;41.66;98187.66;3313622;29;19929;-72
2021/09/03 07:38:43;;;;;;;;;;;;;;;19.85;41.70;98185.25;3313598;29;19929;-73
2021/09/03 07:40:26;;;;;;;;;;;;;;;19.73;41.74;98171.38;3313887;29;19973;-73
2021/09/03 07:42:07;;;;;;;;;;;;;;;19.56;41.75;98180.75;3313239;29;19957;-72
2021/09/03 07:43:47;;;;;;;;;;;;;;;19.38;41.96;98176.13;3313632;29;20355;-72
2021/09/03 07:45:28;;;;;;;;;;;;;;;19.20;42.66;98161.47;3313978;29;19929;-73
2021/09/03 07:47:08;;;;;;;;;;;;;;;19.01;42.47;98166.84;3312534;29;19929;-73
2021/09/03 07:48:49;;;;;;;;;;;;;;;18.92;43.00;98161.25;3313764;29;19936;-72
2021/09/03 07:50:30;;;;;;;;;;;;;;;18.87;42.86;98157.78;3313870;29;19929;-72
2021/09/03 07:52:10;;;;;;;;;;;;;;;18.89;42.73;98159.13;3313547;29;20397;-72
2021/09/03 07:53:52;;;;;;;;;;;;;;;18.87;42.64;98157.78;3314116;29;20401;-73
2021/09/03 07:55:33;;;;;;;;;;;;;;;18.84;42.89;98150.28;3313740;29;20280;-72
2021/09/03 07:57:14;;;;;;;;;;;;;;;18.79;43.09;98156.53;3312835;29;19964;-73
2021/09/03 07:58:54;;;;;;;;;;;;;;;18.76;43.42;98149.00;3310579;29;19984;-72
2021/09/03 08:00:35;;;;;;;;;;;;;;;18.71;43.71;98144.41;3313418;29;20024;-72
2021/09/03 08:02:35;;;;;;;;;;;;;;;18.62;43.80;98145.34;3312698;29;20429;-71
2021/09/03 08:04:41;;;;;;;;;;;;;;;18.43;43.78;98139.84;3313892;29;19929;-72
2021/09/03 08:06:22;;;;;;;;;;;;;;;18.30;44.61;98135.91;3313027;29;19994;-73
2021/09/03 08:08:04;;;;;;;;;;;;;;;18.20;44.82;98136.00;3313751;29;20466;-73
2021/09/03 08:09:44;;;;;;;;;;;;;;;18.08;44.78;98125.59;3312905;29;19970;-71
2021/09/03 08:11:43;;;;;;;;;;;;;;;17.90;45.46;98131.66;3314100;29;19972;-71
2021/09/03 08:13:24;;;;;;;;;;;;;;;17.71;45.89;98150.34;3313061;29;20420;-72
2021/09/03 08:15:05;;;;;;;;;;;;;;;17.52;46.26;98145.59;3313110;29;20346;-73
2021/09/03 08:17:04;;;;;;;;;;;;;;;17.30;46.71;98143.31;3313299;29;20035;-73
2021/09/03 08:19:04;;;;;;;;;;;;;;;17.06;47.23;98147.69;3313141;29;19941;-72
2021/09/03 08:20:46;;;;;;;;;;;;;;;16.95;47.48;98150.41;3313408;29;19977;-72
2021/09/03 08:22:26;;;;;;;;;;;;;;;16.87;47.93;98156.38;3313886;29;19933;-72
2021/09/03 08:24:07;;;;;;;;;;;;;;;16.77;48.25;98161.75;3313480;29;20447;-72
2021/09/03 08:25:48;;;;;;;;;;;;;;;16.66;48.61;98155.59;3313104;29;19929;-71
2021/09/03 08:27:28;;;;;;;;;;;;;;;16.54;49.11;98155.84;3311735;29;19936;-73
2021/09/03 08:29:09;;;;;;;;;;;;;;;16.44;49.37;98145.09;3312771;29;19929;-73
2021/09/03 08:30:49;;;;;;;;;;;;;;;16.35;49.47;98155.63;3312579;29;20393;-72
2021/09/03 08:32:30;;;;;;;;;;;;;;;16.26;49.59;98153.72;3310044;29;19929;-72
2021/09/03 08:34:10;;;;;;;;;;;;;;;16.18;49.81;98133.56;3313101;29;19929;-72
2021/09/03 08:35:52;;;;;;;;;;;;;;;16.13;50.19;98137.09;3313206;29;19929;-72
2021/09/03 08:37:33;;;;;;;;;;;;;;;16.09;50.50;98127.13;3313138;29;20422;-73
2021/09/03 08:39:13;;;;;;;;;;;;;;;15.99;51.05;98132.50;3313101;29;19929;-72
2021/09/03 08:40:55;;;;;;;;;;;;;;;15.87;50.94;98132.75;3312496;29;19937;-73
2021/09/03 08:42:58;;;;;;;;;;;;;;;15.79;51.04;98134.09;3313055;29;19929;-72
2021/09/03 08:44:40;;;;;;;;;;;;;;;15.74;51.39;98127.91;3313115;29;19929;-71
2021/09/03 08:46:20;;;;;;;;;;;;;;;15.73;51.43;98126.31;3313093;29;20389;-73
2021/09/03 08:48:01;;;;;;;;;;;;;;;15.70;51.59;98123.06;3312080;29;19929;-72